ADDS METAR Data INFO
IDs: Format: Raw Decoded Include TAF

Data at: 1326 UTC 19 Jul 2018

KLUA 191315Z AUTO 00000KT 10SM CLR 20/14 A3014 RMK AO2
KLUA 191255Z AUTO 00000KT 10SM CLR 18/15 A3014 RMK AO2
KLUA 191235Z AUTO 00000KT 10SM CLR 17/15 A3013 RMK AO2
KLUA 191215Z AUTO 00000KT 10SM CLR 16/15 A3013 RMK AO2
KLUA 191155Z AUTO 00000KT 10SM CLR 16/15 A3012 RMK AO2
KLUA 191135Z AUTO 23003KT 10SM CLR 15/14 A3012 RMK AO2
KLUA 191115Z AUTO 21003KT 10SM CLR 14/14 A3011 RMK AO2
KLUA 191055Z AUTO 00000KT 10SM CLR 13/13 A3011 RMK AO2
KLUA 191035Z AUTO 00000KT 10SM CLR 13/13 A3011 RMK AO2
KLUA 191015Z AUTO 00000KT 10SM CLR 13/13 A3011 RMK AO2
KLUA 190955Z AUTO 00000KT 10SM SCT002 13/13 A3010 RMK AO2
KLUA 190935Z AUTO 00000KT 2SM BR SCT002 13/13 A3009 RMK AO2
KLUA 190915Z AUTO 00000KT 10SM CLR 14/13 A3008 RMK AO2
KLUA 190855Z AUTO 00000KT 10SM CLR 14/13 A3009 RMK AO2
KLUA 190830Z AUTO 00000KT 10SM CLR 14/13 A3008 RMK AO2
KLUA 190810Z AUTO 00000KT 10SM CLR 15/14 A3009 RMK AO2
KLUA 190755Z AUTO 00000KT 10SM CLR 15/15 A3009 RMK AO2
KLUA 190735Z AUTO 00000KT 10SM CLR 15/15 A3009 RMK AO2
KLUA 190715Z AUTO 00000KT 10SM CLR 15/15 A3009 RMK AO2
KLUA 190655Z AUTO 00000KT 10SM CLR 15/15 A3009 RMK AO2
KLUA 190635Z AUTO 00000KT 10SM CLR 15/15 A3008 RMK AO2
KLUA 190615Z AUTO 00000KT 10SM CLR 15/15 A3009 RMK AO2
KLUA 190555Z AUTO 00000KT 10SM CLR 15/15 A3008 RMK AO2
KLUA 190540Z AUTO 00000KT 10SM CLR 15/15 A3008 RMK AO2
KLUA 190515Z AUTO 00000KT 10SM CLR 16/15 A3007 RMK AO2
KLUA 190455Z AUTO 00000KT 10SM CLR 16/15 A3007 RMK AO2
KLUA 190435Z AUTO 00000KT 10SM SCT065 16/16 A3006 RMK AO2
KLUA 190415Z AUTO 00000KT 10SM SCT065 16/16 A3006 RMK AO2
KLUA 190355Z AUTO 00000KT 10SM CLR 16/16 A3005 RMK AO2
KLUA 190335Z AUTO 00000KT 10SM CLR 17/16 A3005 RMK AO2
KLUA 190315Z AUTO 00000KT 10SM CLR 17/16 A3005 RMK AO2
KLUA 190255Z AUTO 00000KT 10SM CLR 17/16 A3005 RMK AO2
KLUA 190235Z AUTO 00000KT 10SM CLR 18/16 A3004 RMK AO2
KLUA 190215Z AUTO 00000KT 10SM CLR 18/16 A3004 RMK AO2
KLUA 190155Z AUTO 00000KT 10SM CLR 20/16 A3004 RMK AO2
KLUA 190135Z AUTO 00000KT 10SM CLR 19/16 A3003 RMK AO2
KLUA 190115Z AUTO 00000KT 10SM CLR 20/16 A3002 RMK AO2
KLUA 190055Z AUTO 00000KT 10SM CLR 21/16 A3002 RMK AO2
KLUA 190035Z AUTO 00000KT 10SM CLR 22/16 A3001 RMK AO2
KLUA 190015Z AUTO 00000KT 10SM CLR 23/16 A3001 RMK AO2
KLUA 182355Z AUTO 00000KT 10SM CLR 25/14 A3000 RMK AO2
KLUA 182335Z AUTO 02004KT 10SM CLR 25/13 A3000 RMK AO2
KLUA 182315Z AUTO 02004KT 10SM CLR 26/12 A3000 RMK AO2
KLUA 182255Z AUTO 35003KT 10SM CLR 26/11 A3000 RMK AO2
KLUA 182235Z AUTO 35005KT 10SM CLR 26/11 A3000 RMK AO2
KLUA 182215Z AUTO 36006KT 10SM CLR 27/11 A3000 RMK AO2
KLUA 182155Z AUTO 33004KT 10SM CLR 26/12 A3000 RMK AO2
KLUA 182135Z AUTO 34005KT 10SM CLR 27/11 A3000 RMK AO2
KLUA 182115Z AUTO 34007KT 10SM SCT065 27/11 A3000 RMK AO2
KLUA 182055Z AUTO 33006KT 10SM CLR 27/11 A3000 RMK AO2
KLUA 182035Z AUTO 32006KT 10SM CLR 27/11 A3001 RMK AO2
KLUA 182015Z AUTO 36005KT 10SM SCT065 27/11 A3001 RMK AO2
KLUA 181955Z AUTO 32007KT 10SM BKN065 27/11 A3001 RMK AO2
KLUA 181935Z AUTO 34005KT 10SM SCT065 27/12 A3001 RMK AO2
KLUA 181915Z AUTO 01005KT 10SM SCT065 27/12 A3001 RMK AO2
KLUA 181855Z AUTO 31004KT 10SM SCT065 27/12 A3002 RMK AO2
KLUA 181835Z AUTO 35009KT 10SM SCT060 26/12 A3002 RMK AO2
KLUA 181815Z AUTO 34003KT 10SM SCT060 26/11 A3002 RMK AO2
KLUA 181755Z AUTO 33005G08KT 10SM CLR 26/11 A3002 RMK AO2
KLUA 181735Z AUTO 34007KT 10SM CLR 26/11 A3002 RMK AO2
KLUA 181715Z AUTO 34009KT 10SM SCT055 26/12 A3002 RMK AO2
KLUA 181655Z AUTO 33008KT 10SM SCT055 26/12 A3003 RMK AO2
KLUA 181635Z AUTO 33009KT 10SM SCT055 25/12 A3003 RMK AO2
KLUA 181615Z AUTO 32009KT 10SM CLR 25/11 A3003 RMK AO2
KLUA 181555Z AUTO 35009G14KT 10SM CLR 25/12 A3004 RMK AO2
KLUA 181535Z AUTO 31008KT 10SM CLR 25/12 A3004 RMK AO2
KLUA 181515Z AUTO 05006KT 10SM CLR 25/11 A3004 RMK AO2
KLUA 181455Z AUTO 01006KT 10SM CLR 25/13 A3004 RMK AO2
KLUA 181435Z AUTO 36006KT 10SM CLR 24/13 A3004 RMK AO2
KLUA 181410Z AUTO 32009KT 10SM SCT042 23/13 A3004 RMK AO2
KLUA 181350Z AUTO 36007KT 310V020 10SM CLR 23/13 A3004 RMK AO2
KLUA 181335Z AUTO 35007KT 10SM CLR 23/14 A3004 RMK AO2
KLUA 181315Z AUTO 33006KT 10SM CLR 22/13 A3004 RMK AO2
KLUA 181255Z AUTO 34005KT 10SM CLR 22/13 A3004 RMK AO2
KLUA 181235Z AUTO 36005KT 10SM CLR 21/13 A3004 RMK AO2
KLUA 181215Z AUTO 33006KT 10SM CLR 21/13 A3003 RMK AO2
KLUA 181155Z AUTO 36005KT 10SM CLR 21/13 A3003 RMK AO2
KLUA 181135Z AUTO 00000KT 10SM CLR 20/14 A3002 RMK AO2
KLUA 181115Z AUTO 33003KT 10SM CLR 19/14 A3001 RMK AO2
KLUA 181055Z AUTO 34004KT 10SM CLR 18/15 A3001 RMK AO2
KLUA 181035Z AUTO 35004KT 10SM CLR 18/13 A3000 RMK AO2
KLUA 181015Z AUTO 36003KT 10SM CLR 19/13 A2999 RMK AO2 LTG DSNT E
KLUA 180955Z AUTO 01006KT 10SM CLR 18/13 A2999 RMK AO2
KLUA 180935Z AUTO 00000KT 10SM CLR 18/13 A2998 RMK AO2
KLUA 180915Z AUTO 02006KT 10SM CLR 19/13 A2997 RMK AO2
KLUA 180855Z AUTO 36003KT 10SM CLR 18/14 A2997 RMK AO2
KLUA 180835Z AUTO 34003KT 10SM CLR 18/15 A2997 RMK AO2
KLUA 180815Z AUTO 00000KT 10SM CLR 18/16 A2997 RMK AO2
KLUA 180755Z AUTO 00000KT 10SM CLR 19/16 A2998 RMK AO2
KLUA 180735Z AUTO 00000KT 10SM CLR 18/17 A2997 RMK AO2
KLUA 180715Z AUTO 00000KT 10SM CLR 18/17 A2998 RMK AO2
KLUA 180655Z AUTO 00000KT 10SM CLR 18/17 A2997 RMK AO2
KLUA 180635Z AUTO 00000KT 10SM CLR 19/18 A2997 RMK AO2
KLUA 180615Z AUTO 35003KT 10SM CLR 19/18 A2996 RMK AO2
KLUA 180555Z AUTO 35003KT 10SM CLR 19/18 A2996 RMK AO2
KLUA 180535Z AUTO 00000KT 10SM CLR 20/18 A2996 RMK AO2
KLUA 180515Z AUTO 00000KT 10SM CLR 20/18 A2996 RMK AO2
KLUA 180455Z AUTO 00000KT 10SM CLR 20/20 A2995 RMK AO2
KLUA 180435Z AUTO 00000KT 10SM CLR 21/19 A2995 RMK AO2
KLUA 180415Z AUTO 03003KT 10SM BKN060 22/18 A2996 RMK AO2
KLUA 180355Z AUTO 08003KT 10SM SCT060 22/20 A2996 RMK AO2
KLUA 180335Z AUTO 00000KT 10SM CLR 21/21 A2995 RMK AO2
KLUA 180315Z AUTO 00000KT 10SM CLR 22/21 A2995 RMK AO2
KLUA 180255Z AUTO 00000KT 10SM CLR 22/21 A2993 RMK AO2
KLUA 180235Z AUTO 00000KT 10SM SCT038 SCT048 22/21 A2994 RMK AO2
KLUA 180215Z AUTO 06003KT 10SM SCT040 22/21 A2994 RMK AO2
KLUA 180155Z AUTO 00000KT 10SM CLR 22/21 A2992 RMK AO2
KLUA 180135Z AUTO 00000KT 10SM SCT049 22/21 A2992 RMK AO2